createdAt,value
2022-10-13T00:00:29.770Z,0
2022-10-13T00:01:29.856Z,0
2022-10-13T00:02:29.764Z,0
2022-10-13T00:03:29.776Z,0
2022-10-13T00:04:29.768Z,0
2022-10-13T00:05:29.774Z,0
2022-10-13T00:06:29.789Z,0
2022-10-13T00:07:29.767Z,0
2022-10-13T00:08:29.766Z,0
2022-10-13T00:09:29.769Z,0
2022-10-13T00:10:29.768Z,0
2022-10-13T00:11:29.793Z,0
2022-10-13T00:12:29.778Z,0
2022-10-13T00:13:29.786Z,0
2022-10-13T00:14:29.777Z,0
2022-10-13T00:15:29.788Z,0
2022-10-13T00:16:29.808Z,0
2022-10-13T00:17:29.785Z,0
2022-10-13T00:18:29.777Z,0
2022-10-13T00:19:29.778Z,0
2022-10-13T00:20:29.787Z,0
2022-10-13T00:21:29.790Z,0
2022-10-13T00:22:29.793Z,0
2022-10-13T00:23:29.782Z,0
2022-10-13T00:24:29.786Z,0
2022-10-13T00:25:29.781Z,0
2022-10-13T00:26:29.801Z,0
2022-10-13T00:27:29.781Z,0
2022-10-13T00:28:29.830Z,0
2022-10-13T00:29:29.786Z,0
2022-10-13T00:30:29.768Z,0
2022-10-13T00:31:29.804Z,0
2022-10-13T00:32:29.784Z,0
2022-10-13T00:33:29.790Z,0
2022-10-13T00:34:29.787Z,0
2022-10-13T00:35:29.784Z,0
2022-10-13T00:36:29.805Z,0
2022-10-13T00:37:29.781Z,0
2022-10-13T00:38:29.772Z,0
2022-10-13T00:39:29.787Z,0
2022-10-13T00:40:29.786Z,0
2022-10-13T00:41:29.793Z,0
2022-10-13T00:42:29.787Z,0
2022-10-13T00:43:29.802Z,0
2022-10-13T00:44:29.781Z,0
2022-10-13T00:45:29.784Z,0
2022-10-13T00:46:29.827Z,0
2022-10-13T00:47:29.784Z,0
2022-10-13T00:48:29.777Z,0
2022-10-13T00:49:29.785Z,0
2022-10-13T00:50:29.787Z,0
2022-10-13T00:51:29.797Z,0
2022-10-13T00:52:29.790Z,0
2022-10-13T00:53:29.784Z,0
2022-10-13T00:54:29.774Z,0
2022-10-13T00:55:29.778Z,0
2022-10-13T00:56:29.796Z,0
2022-10-13T00:57:29.788Z,0
2022-10-13T00:58:29.786Z,0
2022-10-13T00:59:29.793Z,0
2022-10-13T01:00:29.829Z,0
2022-10-13T01:01:29.812Z,0
2022-10-13T01:02:29.787Z,0
2022-10-13T01:03:29.784Z,0
2022-10-13T01:04:29.769Z,0
2022-10-13T01:05:29.771Z,0
2022-10-13T01:06:29.781Z,0
2022-10-13T01:07:29.770Z,0
2022-10-13T01:08:29.768Z,0
2022-10-13T01:09:29.770Z,0
2022-10-13T01:10:29.768Z,0
2022-10-13T01:11:29.929Z,0
2022-10-13T01:12:29.763Z,0
2022-10-13T01:13:29.766Z,0
2022-10-13T01:14:29.769Z,0
2022-10-13T01:15:29.768Z,0
2022-10-13T01:16:29.794Z,0
2022-10-13T01:17:29.765Z,0
2022-10-13T01:18:29.764Z,0
2022-10-13T01:19:29.764Z,0
2022-10-13T01:20:29.781Z,0
2022-10-13T01:21:29.796Z,0
2022-10-13T01:22:29.770Z,0
2022-10-13T01:23:29.784Z,0
2022-10-13T01:24:29.785Z,0
2022-10-13T01:25:29.778Z,0
2022-10-13T01:26:29.820Z,0
2022-10-13T01:27:29.783Z,0
2022-10-13T01:28:29.845Z,0
2022-10-13T01:29:29.781Z,0
2022-10-13T01:30:29.772Z,0
2022-10-13T01:31:29.796Z,0
2022-10-13T01:32:29.793Z,0
2022-10-13T01:33:29.785Z,0
2022-10-13T01:34:29.783Z,0
2022-10-13T01:35:29.777Z,0
2022-10-13T01:36:29.797Z,0
2022-10-13T01:37:29.786Z,0
2022-10-13T01:38:29.786Z,0
2022-10-13T01:39:29.786Z,0
2022-10-13T01:40:29.791Z,0
2022-10-13T01:41:29.796Z,0
2022-10-13T01:42:29.782Z,0
2022-10-13T01:43:29.785Z,0
2022-10-13T01:44:29.788Z,0
2022-10-13T01:45:29.775Z,0
2022-10-13T01:46:29.798Z,0
2022-10-13T01:47:29.789Z,0
2022-10-13T01:48:29.784Z,0
2022-10-13T01:49:29.777Z,0
2022-10-13T01:50:29.770Z,0
2022-10-13T01:51:29.793Z,0
2022-10-13T01:52:29.774Z,0
2022-10-13T01:53:29.782Z,0
2022-10-13T01:54:29.791Z,0
2022-10-13T01:55:29.769Z,0
2022-10-13T01:56:29.795Z,0
2022-10-13T01:57:29.780Z,0
2022-10-13T01:58:29.780Z,0
2022-10-13T01:59:29.789Z,0
2022-10-13T02:00:29.794Z,0
2022-10-13T02:01:29.796Z,0
2022-10-13T02:02:29.781Z,0
2022-10-13T02:03:29.775Z,0
2022-10-13T02:04:29.786Z,0
2022-10-13T02:05:29.772Z,0
2022-10-13T02:06:29.799Z,0
2022-10-13T02:07:29.790Z,0
2022-10-13T02:08:29.769Z,0
2022-10-13T02:09:29.769Z,0
2022-10-13T02:10:29.769Z,0
2022-10-13T02:11:29.790Z,0
2022-10-13T02:12:29.773Z,0
2022-10-13T02:13:29.768Z,0
2022-10-13T02:14:29.768Z,0
2022-10-13T02:15:29.774Z,0
2022-10-13T02:16:29.803Z,0
2022-10-13T02:17:29.771Z,0
2022-10-13T02:18:29.774Z,0
2022-10-13T02:19:29.776Z,0
2022-10-13T02:20:29.768Z,0
2022-10-13T02:21:29.785Z,0
2022-10-13T02:22:29.779Z,0
2022-10-13T02:23:29.772Z,0
2022-10-13T02:24:29.769Z,0
2022-10-13T02:25:29.775Z,0
2022-10-13T02:26:29.792Z,0
2022-10-13T02:27:29.790Z,0
2022-10-13T02:28:29.847Z,0
2022-10-13T02:29:29.790Z,0
2022-10-13T02:30:29.774Z,0
2022-10-13T02:31:29.789Z,0
2022-10-13T02:32:29.774Z,0
2022-10-13T02:33:29.789Z,0
2022-10-13T02:34:29.798Z,0
2022-10-13T02:35:29.776Z,0
2022-10-13T02:36:29.806Z,0
2022-10-13T02:37:29.769Z,0
2022-10-13T02:38:29.776Z,0
2022-10-13T02:39:29.797Z,0
2022-10-13T02:40:29.787Z,0
2022-10-13T02:41:29.787Z,0
2022-10-13T02:42:29.794Z,0
2022-10-13T02:43:29.790Z,0
2022-10-13T02:44:29.772Z,0
2022-10-13T02:45:29.792Z,0
2022-10-13T02:46:29.804Z,0
2022-10-13T02:47:29.770Z,0
2022-10-13T02:48:29.778Z,0
2022-10-13T02:49:29.796Z,0
2022-10-13T02:50:29.778Z,0
2022-10-13T02:51:29.787Z,0
2022-10-13T02:52:29.795Z,0
2022-10-13T02:53:29.778Z,0
2022-10-13T02:54:29.771Z,0
2022-10-13T02:55:29.772Z,0
2022-10-13T02:56:29.823Z,0
2022-10-13T02:57:29.796Z,0
2022-10-13T02:58:29.800Z,0
2022-10-13T02:59:29.866Z,0
2022-10-13T03:00:29.813Z,0
2022-10-13T03:01:29.820Z,0
2022-10-13T03:02:29.822Z,0
2022-10-13T03:03:29.790Z,0
2022-10-13T03:04:29.771Z,0
2022-10-13T03:05:29.788Z,0
2022-10-13T03:06:29.812Z,0
2022-10-13T03:07:29.794Z,0
2022-10-13T03:08:29.791Z,0
2022-10-13T03:09:29.795Z,0
2022-10-13T03:10:29.788Z,0
2022-10-13T03:11:29.803Z,0
2022-10-13T03:12:29.795Z,0
2022-10-13T03:13:29.799Z,0
2022-10-13T03:14:29.794Z,0
2022-10-13T03:15:29.788Z,0
2022-10-13T03:16:29.982Z,0
2022-10-13T03:17:29.775Z,0
2022-10-13T03:18:29.773Z,0
2022-10-13T03:19:29.779Z,0
2022-10-13T03:20:29.777Z,0
2022-10-13T03:21:29.794Z,0
2022-10-13T03:22:29.776Z,0
2022-10-13T03:23:29.773Z,0
2022-10-13T03:24:29.773Z,0
2022-10-13T03:25:29.782Z,0
2022-10-13T03:26:29.801Z,0
2022-10-13T03:27:29.779Z,0
2022-10-13T03:28:29.844Z,0
2022-10-13T03:29:29.771Z,0
2022-10-13T03:30:29.777Z,0
2022-10-13T03:31:29.798Z,0
2022-10-13T03:32:29.799Z,0
2022-10-13T03:33:29.773Z,0
2022-10-13T03:34:29.793Z,0
2022-10-13T03:35:29.795Z,0
2022-10-13T03:36:29.798Z,0
2022-10-13T03:37:29.801Z,0
2022-10-13T03:38:29.790Z,0
2022-10-13T03:39:29.794Z,0
2022-10-13T03:40:29.792Z,0
2022-10-13T03:41:29.814Z,0
2022-10-13T03:42:29.802Z,0
2022-10-13T03:43:29.797Z,0
2022-10-13T03:44:29.798Z,0
2022-10-13T03:45:29.797Z,0
2022-10-13T03:46:29.813Z,0
2022-10-13T03:47:29.795Z,0
2022-10-13T03:48:29.801Z,0
2022-10-13T03:49:29.794Z,0
2022-10-13T03:50:29.801Z,0
2022-10-13T03:51:29.829Z,0
2022-10-13T03:52:29.785Z,0
2022-10-13T03:53:29.792Z,0
2022-10-13T03:54:29.797Z,0
2022-10-13T03:55:29.807Z,0
2022-10-13T03:56:29.807Z,0
2022-10-13T03:57:29.787Z,0
2022-10-13T03:58:29.801Z,0
2022-10-13T03:59:34.195Z,0
2022-10-13T04:00:29.781Z,0
2022-10-13T04:01:29.937Z,0
2022-10-13T04:02:29.796Z,0
2022-10-13T04:03:29.791Z,0
2022-10-13T04:04:29.811Z,0
2022-10-13T04:05:29.793Z,0
2022-10-13T04:06:29.808Z,0
2022-10-13T04:07:29.792Z,0
2022-10-13T04:08:29.780Z,0
2022-10-13T04:09:29.796Z,0
2022-10-13T04:10:29.781Z,0
2022-10-13T04:11:29.799Z,0
2022-10-13T04:12:29.797Z,0
2022-10-13T04:13:29.852Z,0
2022-10-13T04:14:29.797Z,0
2022-10-13T04:15:29.807Z,0
2022-10-13T04:16:29.804Z,0
2022-10-13T04:17:29.782Z,0
2022-10-13T04:18:29.785Z,0
2022-10-13T04:19:29.806Z,0
2022-10-13T04:20:29.774Z,0
2022-10-13T04:21:29.803Z,0
2022-10-13T04:22:29.772Z,0
2022-10-13T04:23:29.768Z,0
2022-10-13T04:24:29.782Z,0
2022-10-13T04:25:29.767Z,0
2022-10-13T04:26:29.796Z,0
2022-10-13T04:27:29.770Z,0
2022-10-13T04:28:29.841Z,0
2022-10-13T04:29:29.767Z,0
2022-10-13T04:30:29.766Z,0
2022-10-13T04:31:29.788Z,0
2022-10-13T04:32:29.772Z,0
2022-10-13T04:33:29.765Z,0
2022-10-13T04:34:29.764Z,0
2022-10-13T04:35:29.764Z,0
2022-10-13T04:36:29.778Z,0
2022-10-13T04:37:29.770Z,0
2022-10-13T04:38:29.772Z,0
2022-10-13T04:39:29.767Z,0
2022-10-13T04:40:29.773Z,0
2022-10-13T04:41:29.776Z,0
2022-10-13T04:42:29.769Z,0
2022-10-13T04:43:29.764Z,0
2022-10-13T04:44:29.786Z,0
2022-10-13T04:45:29.782Z,0
2022-10-13T04:46:29.799Z,0
2022-10-13T04:47:32.405Z,0
2022-10-13T04:48:29.789Z,0
2022-10-13T04:49:29.783Z,0
2022-10-13T04:50:29.771Z,0
2022-10-13T04:51:29.794Z,0
2022-10-13T04:52:29.782Z,0
2022-10-13T04:53:29.780Z,0
2022-10-13T04:54:29.792Z,0
2022-10-13T04:55:29.786Z,0
2022-10-13T04:56:29.792Z,0
2022-10-13T04:57:29.789Z,0
2022-10-13T04:58:29.787Z,0
2022-10-13T04:59:29.786Z,0
2022-10-13T05:00:29.848Z,0
2022-10-13T05:01:29.804Z,0
2022-10-13T05:02:29.764Z,0
2022-10-13T05:03:29.784Z,0
2022-10-13T05:04:29.781Z,0
2022-10-13T05:05:29.786Z,0
2022-10-13T05:06:29.799Z,0
2022-10-13T05:07:29.784Z,0
2022-10-13T05:08:29.766Z,0
2022-10-13T05:09:29.782Z,0.01
2022-10-13T05:10:33.939Z,0.01
2022-10-13T05:11:29.793Z,0.01
2022-10-13T05:12:29.769Z,0.01
2022-10-13T05:13:29.793Z,0.01
2022-10-13T05:14:29.779Z,0.01
2022-10-13T05:15:29.859Z,0.01
2022-10-13T05:16:29.810Z,0.02
2022-10-13T05:17:34.862Z,0.02
2022-10-13T05:18:29.820Z,0.02
2022-10-13T05:19:29.787Z,0.02
2022-10-13T05:20:29.793Z,0.02
2022-10-13T05:21:29.843Z,0.03
2022-10-13T05:22:29.791Z,0.03
2022-10-13T05:23:29.775Z,0.03
2022-10-13T05:24:29.783Z,0.04
2022-10-13T05:25:33.686Z,0.04
2022-10-13T05:26:29.805Z,0.04
2022-10-13T05:27:29.787Z,0.04
2022-10-13T05:28:29.812Z,0.05
2022-10-13T05:29:29.784Z,0.06
2022-10-13T05:30:29.765Z,0.06
2022-10-13T05:31:29.810Z,0.07
2022-10-13T05:32:29.782Z,0.08
2022-10-13T05:33:29.785Z,0.08
2022-10-13T05:34:29.768Z,0.08
2022-10-13T05:35:29.769Z,0.09
2022-10-13T05:36:29.778Z,0.1
2022-10-13T05:37:29.764Z,0.11
2022-10-13T05:38:29.770Z,0.12
2022-10-13T05:39:29.767Z,0.12
2022-10-13T05:40:29.769Z,0.12
2022-10-13T05:41:29.779Z,0.13
2022-10-13T05:42:29.776Z,0.14
2022-10-13T05:43:29.767Z,0.15
2022-10-13T05:44:29.767Z,0.16
2022-10-13T05:45:29.774Z,0.17
2022-10-13T05:46:29.804Z,0.18
2022-10-13T05:47:29.772Z,0.19
2022-10-13T05:48:29.769Z,0.19
2022-10-13T05:49:29.785Z,0.21
2022-10-13T05:50:29.764Z,0.21
2022-10-13T05:51:29.790Z,0.23
2022-10-13T05:52:29.782Z,0.24
2022-10-13T05:53:29.784Z,0.25
2022-10-13T05:54:29.780Z,0.29
2022-10-13T05:55:29.788Z,0.39
2022-10-13T05:56:29.789Z,0.43
2022-10-13T05:57:29.775Z,0.49
2022-10-13T05:58:29.776Z,0.52
2022-10-13T05:59:29.795Z,0.54
2022-10-13T06:00:29.771Z,0.54
2022-10-13T06:01:29.860Z,0.57
2022-10-13T06:02:29.773Z,0.59
2022-10-13T06:03:29.783Z,0.61
2022-10-13T06:04:29.814Z,0.61
2022-10-13T06:05:29.785Z,0.6
2022-10-13T06:06:31.630Z,0.59
2022-10-13T06:07:29.779Z,0.55
2022-10-13T06:08:29.787Z,0.42
2022-10-13T06:09:29.784Z,0.35
2022-10-13T06:10:29.771Z,0.35
2022-10-13T06:11:29.792Z,0.34
2022-10-13T06:12:29.779Z,0.35
2022-10-13T06:13:29.779Z,0.36
2022-10-13T06:14:29.785Z,0.37
2022-10-13T06:15:29.766Z,0.38
2022-10-13T06:16:29.813Z,0.38
2022-10-13T06:17:29.784Z,0.39
2022-10-13T06:18:29.790Z,0.4
2022-10-13T06:19:29.776Z,0.41
2022-10-13T06:20:29.765Z,0.41
2022-10-13T06:21:29.792Z,0.44
2022-10-13T06:22:29.781Z,0.46
2022-10-13T06:23:29.784Z,0.49
2022-10-13T06:24:29.789Z,0.54
2022-10-13T06:25:29.786Z,0.58
2022-10-13T06:26:29.799Z,1.02
2022-10-13T06:27:29.780Z,1.02
2022-10-13T06:28:29.794Z,0.75
2022-10-13T06:29:29.780Z,0.78
2022-10-13T06:30:29.772Z,0.78
2022-10-13T06:31:29.794Z,1.86
2022-10-13T06:32:29.794Z,1.83
2022-10-13T06:33:29.782Z,1.88
2022-10-13T06:34:29.778Z,2.02
2022-10-13T06:35:29.777Z,2.18
2022-10-13T06:36:29.781Z,2.21
2022-10-13T06:37:29.781Z,2.2
2022-10-13T06:38:29.790Z,2.2
2022-10-13T06:39:29.770Z,2.23
2022-10-13T06:40:29.773Z,2.23
2022-10-13T06:41:29.791Z,2.35
2022-10-13T06:42:29.767Z,2.4
2022-10-13T06:43:35.961Z,2.43
2022-10-13T06:44:29.765Z,2.39
2022-10-13T06:45:29.766Z,2.45
2022-10-13T06:46:29.788Z,2.09
2022-10-13T06:47:29.771Z,1.51
2022-10-13T06:48:29.774Z,1.33
2022-10-13T06:49:29.769Z,1.31
2022-10-13T06:50:29.769Z,1.31
2022-10-13T06:51:29.781Z,2.79
2022-10-13T06:52:29.773Z,2.22
2022-10-13T06:53:29.770Z,2.32
2022-10-13T06:54:29.771Z,2.99
2022-10-13T06:55:29.769Z,2.93
2022-10-13T06:56:29.806Z,2.55
2022-10-13T06:57:29.783Z,2.49
2022-10-13T06:58:29.784Z,2.72
2022-10-13T06:59:29.788Z,2.16
2022-10-13T07:00:29.795Z,2.16
2022-10-13T07:01:29.795Z,1.41
2022-10-13T07:02:29.775Z,1.36
2022-10-13T07:03:29.786Z,1.19
2022-10-13T07:04:29.787Z,1.2
2022-10-13T07:05:29.783Z,1.29
2022-10-13T07:06:29.801Z,1.49
2022-10-13T07:07:29.790Z,1.82
2022-10-13T07:08:29.783Z,1.75
2022-10-13T07:09:29.774Z,1.7
2022-10-13T07:10:29.772Z,1.7
2022-10-13T07:11:29.792Z,2.58
2022-10-13T07:12:29.777Z,2.05
2022-10-13T07:13:31.348Z,2.1
2022-10-13T07:14:29.786Z,1.68
2022-10-13T07:15:29.777Z,1.58
2022-10-13T07:16:29.794Z,1.64
2022-10-13T07:18:29.688Z,2.15
2022-10-13T07:19:27.887Z,2.15
2022-10-13T07:20:27.907Z,2.15
2022-10-13T07:21:27.872Z,1.62
2022-10-13T07:22:27.883Z,1.62
2022-10-13T07:23:27.870Z,1.77
2022-10-13T07:24:27.870Z,1.64
2022-10-13T07:25:27.861Z,1.6
2022-10-13T07:26:27.861Z,1.71
2022-10-13T07:27:27.876Z,1.71
2022-10-13T07:28:27.898Z,1.71
2022-10-13T07:29:27.869Z,1.64
2022-10-13T07:30:27.852Z,1.64
2022-10-13T07:31:27.873Z,1.91
2022-10-13T07:32:27.878Z,1.98
2022-10-13T07:33:27.890Z,1.76
2022-10-13T07:34:27.899Z,1.73
2022-10-13T07:35:30.641Z,1.72
2022-10-13T07:36:27.859Z,1.61
2022-10-13T07:37:27.890Z,1.54
2022-10-13T07:38:27.862Z,1.43
2022-10-13T07:39:27.887Z,1.4
2022-10-13T07:40:27.847Z,1.4
2022-10-13T07:41:27.949Z,1.36
2022-10-13T07:42:27.906Z,1.35
2022-10-13T07:43:27.860Z,1.34
2022-10-13T07:44:27.857Z,1.26
2022-10-13T07:45:27.863Z,1.23
2022-10-13T07:46:27.858Z,1.21
2022-10-13T07:47:27.881Z,1.19
2022-10-13T07:48:27.871Z,1.17
2022-10-13T07:49:27.860Z,1.15
2022-10-13T07:50:27.849Z,1.15
2022-10-13T07:51:27.877Z,1.13
2022-10-13T07:52:27.874Z,1.13
2022-10-13T07:53:27.881Z,1.13
2022-10-13T07:54:27.879Z,1.13
2022-10-13T07:55:27.929Z,1.13
2022-10-13T07:56:27.863Z,1.14
2022-10-13T07:57:27.899Z,1.14
2022-10-13T07:58:27.859Z,1.14
2022-10-13T07:59:27.855Z,1.15
2022-10-13T08:00:27.856Z,1.15
2022-10-13T08:01:27.914Z,1.18
2022-10-13T08:02:27.875Z,1.18
2022-10-13T08:03:27.898Z,1.21
2022-10-13T08:04:27.856Z,1.41
2022-10-13T08:05:27.849Z,1.42
2022-10-13T08:06:27.908Z,1.4
2022-10-13T08:07:27.879Z,1.58
2022-10-13T08:08:27.859Z,1.89
2022-10-13T08:09:27.852Z,1.89
2022-10-13T08:10:27.843Z,2.02
2022-10-13T08:11:27.857Z,3.14
2022-10-13T08:12:27.874Z,2.46
2022-10-13T08:13:27.840Z,1.82
2022-10-13T08:14:27.933Z,2.48
2022-10-13T08:15:27.845Z,4.09
2022-10-13T08:16:27.837Z,3.84
2022-10-13T08:17:27.877Z,4.13
2022-10-13T08:18:27.848Z,4.17
2022-10-13T08:20:40.961Z,4.03
2022-10-13T08:21:56.453Z,4.03
2022-10-13T08:22:29.008Z,4.03
2022-10-13T08:23:28.975Z,4.03
2022-10-13T08:24:28.975Z,4.03
2022-10-13T08:25:28.954Z,4.03
2022-10-13T08:26:28.962Z,4.03
2022-10-13T08:27:42.204Z,4.03
2022-10-13T08:28:29.034Z,4.03
2022-10-13T08:29:29.027Z,4.03
2022-10-13T08:30:29.091Z,4.03
2022-10-13T08:31:29.200Z,4.03
2022-10-13T08:32:28.981Z,4.03
2022-10-13T08:33:28.991Z,4.03
2022-10-13T08:34:28.940Z,4.03
2022-10-13T08:35:34.131Z,4.03
2022-10-13T08:36:28.962Z,4.03
2022-10-13T08:37:28.994Z,4.03
2022-10-13T08:38:28.945Z,4.03
2022-10-13T08:39:28.979Z,4.03
2022-10-13T08:40:28.973Z,4.03
2022-10-13T08:41:55.606Z,4.73
2022-10-13T08:42:58.051Z,4.77
2022-10-13T08:44:33.652Z,4.78
2022-10-13T08:45:54.460Z,4.83
2022-10-13T08:46:54.451Z,4.91
2022-10-13T08:47:54.462Z,4.9
2022-10-13T08:48:54.448Z,4.86
2022-10-13T08:49:57.812Z,4.89
2022-10-13T08:50:54.449Z,4.99
2022-10-13T08:51:54.445Z,4.54
2022-10-13T08:52:54.556Z,3.5
2022-10-13T08:53:54.450Z,4.81
2022-10-13T08:54:54.446Z,4.86
2022-10-13T08:55:54.454Z,4.96
2022-10-13T08:56:54.465Z,5.1
2022-10-13T08:57:54.464Z,5.18
2022-10-13T08:58:54.441Z,5.15
2022-10-13T08:59:54.454Z,5.08
2022-10-13T09:00:54.450Z,4.67
2022-10-13T09:01:54.530Z,5.32
2022-10-13T09:02:54.459Z,4.81
2022-10-13T09:03:54.449Z,5.2
2022-10-13T09:04:54.455Z,5.22
2022-10-13T09:05:54.438Z,5.33
2022-10-13T09:06:54.443Z,2.14
2022-10-13T09:07:54.581Z,1.99
2022-10-13T09:08:54.443Z,1.29
2022-10-13T09:09:54.447Z,1.27
2022-10-13T09:10:54.438Z,1.34
2022-10-13T09:11:54.436Z,1.44
2022-10-13T09:12:54.460Z,1.56
2022-10-13T09:13:54.446Z,1.72
2022-10-13T09:14:54.444Z,2.05
2022-10-13T09:15:54.435Z,2.43
2022-10-13T09:16:54.437Z,2.59
2022-10-13T09:17:54.475Z,2.52
2022-10-13T09:18:54.440Z,3.68
2022-10-13T09:19:54.432Z,5.87
2022-10-13T09:20:54.438Z,5.85
2022-10-13T09:21:54.434Z,5.8
2022-10-13T09:22:54.458Z,5.67
2022-10-13T09:23:54.461Z,5.33
2022-10-13T09:24:54.430Z,4.92
2022-10-13T09:25:54.524Z,5.78
2022-10-13T09:26:54.435Z,5.92
2022-10-13T09:27:54.557Z,5.92
2022-10-13T09:28:54.659Z,6.22
2022-10-13T09:29:54.482Z,6.29
2022-10-13T09:30:54.433Z,5.28
2022-10-13T09:31:54.471Z,3.22
2022-10-13T09:32:54.447Z,3.86
2022-10-13T09:33:54.430Z,3.92
2022-10-13T09:34:54.429Z,3.67
2022-10-13T09:35:54.443Z,3.32
2022-10-13T09:36:54.432Z,3.18
2022-10-13T09:37:54.444Z,3.6
2022-10-13T09:38:54.430Z,3.6
2022-10-13T09:39:54.432Z,3.79
2022-10-13T09:40:54.434Z,6.04
2022-10-13T09:41:54.430Z,6.42
2022-10-13T09:42:54.449Z,6.47
2022-10-13T09:43:54.436Z,6.45
2022-10-13T09:44:54.448Z,6.42
2022-10-13T09:45:54.434Z,6.35
2022-10-13T09:46:54.428Z,6.25
2022-10-13T09:47:54.449Z,6.24
2022-10-13T09:48:54.434Z,6.23
2022-10-13T09:49:54.441Z,6.09
2022-10-13T09:50:54.516Z,6.14
2022-10-13T09:51:54.434Z,5.17
2022-10-13T09:52:54.453Z,2.55
2022-10-13T09:53:54.531Z,5.98
2022-10-13T09:54:54.440Z,6.01
2022-10-13T09:55:54.432Z,5.93
2022-10-13T09:56:54.441Z,5.6
2022-10-13T09:57:54.460Z,5.78
2022-10-13T09:58:54.445Z,5.85
2022-10-13T09:59:54.502Z,5.78
2022-10-13T10:00:54.449Z,5.74
2022-10-13T10:01:54.438Z,5.85
2022-10-13T10:02:54.470Z,5.88
2022-10-13T10:03:54.508Z,5.88
2022-10-13T10:04:54.438Z,5.84
2022-10-13T10:05:54.447Z,5.81
2022-10-13T10:06:54.446Z,5.82
2022-10-13T10:07:54.468Z,5.71
2022-10-13T10:09:03.427Z,5.71
2022-10-13T10:09:54.442Z,5.76
2022-10-13T10:10:54.443Z,5.78
2022-10-13T10:11:54.449Z,5.75
2022-10-13T10:12:54.607Z,5.77
2022-10-13T10:13:54.449Z,5.72
2022-10-13T10:14:54.444Z,5.74
2022-10-13T10:15:54.450Z,5.73
2022-10-13T10:16:54.452Z,5.73
2022-10-13T10:17:54.489Z,5.76
2022-10-13T10:18:58.610Z,5.64
2022-10-13T10:19:54.446Z,5.62
2022-10-13T10:20:54.445Z,5.59
2022-10-13T10:21:54.443Z,5.58
2022-10-13T10:22:54.493Z,5.56
2022-10-13T10:23:54.452Z,5.6
2022-10-13T10:24:54.448Z,5.5
2022-10-13T10:25:54.468Z,5.5
2022-10-13T10:26:54.449Z,5.48
2022-10-13T10:27:54.462Z,5.48
2022-10-13T10:28:54.594Z,5.44
2022-10-13T10:29:54.450Z,5.33
2022-10-13T10:30:54.443Z,5.41
2022-10-13T10:31:54.454Z,5.17
2022-10-13T10:32:54.552Z,5.3
2022-10-13T10:33:54.442Z,5.37
2022-10-13T10:34:54.449Z,5.45
2022-10-13T10:35:54.437Z,5.45
2022-10-13T10:36:54.438Z,5.32
2022-10-13T10:37:54.437Z,5.24
2022-10-13T10:38:54.439Z,5.33
2022-10-13T10:39:54.432Z,5.42
2022-10-13T10:40:54.430Z,5.46
2022-10-13T10:41:54.428Z,5.46
2022-10-13T10:42:54.544Z,4.22
2022-10-13T10:43:54.438Z,5.25
2022-10-13T10:44:54.426Z,2.74
2022-10-13T10:45:54.426Z,5.56
2022-10-13T10:46:54.429Z,5.54
2022-10-13T10:47:54.481Z,5.13
2022-10-13T10:48:54.429Z,5.22
2022-10-13T10:49:54.428Z,5.58
2022-10-13T10:50:54.433Z,5.54
2022-10-13T10:51:54.432Z,5.6
2022-10-13T10:52:54.444Z,5.51
2022-10-13T10:53:54.429Z,5.43
2022-10-13T10:54:54.424Z,5.58
2022-10-13T10:55:54.431Z,5.49
2022-10-13T10:56:54.435Z,5.47
2022-10-13T10:57:54.446Z,5.6
2022-10-13T10:58:54.431Z,5.58
2022-10-13T10:59:54.431Z,5.68
2022-10-13T11:00:54.425Z,5.65
2022-10-13T11:01:54.495Z,5.51
2022-10-13T11:02:54.448Z,5.44
2022-10-13T11:03:54.429Z,5.57
2022-10-13T11:04:54.427Z,5.44
2022-10-13T11:05:54.438Z,5.62
2022-10-13T11:06:54.430Z,5.52
2022-10-13T11:07:54.447Z,5.13
2022-10-13T11:08:54.427Z,5.51
2022-10-13T11:09:54.425Z,5.22
2022-10-13T11:10:54.437Z,5.14
2022-10-13T11:11:54.428Z,5.3
2022-10-13T11:12:54.463Z,5.05
2022-10-13T11:13:54.436Z,5.24
2022-10-13T11:14:54.435Z,5.4
2022-10-13T11:15:54.436Z,5.34
2022-10-13T11:16:54.435Z,5.27
2022-10-13T11:17:54.467Z,5.41
2022-10-13T11:18:54.433Z,4.52
2022-10-13T11:19:54.456Z,5.31
2022-10-13T11:20:54.429Z,5.34
2022-10-13T11:21:54.430Z,4.83
2022-10-13T11:22:54.447Z,5.52
2022-10-13T11:23:58.451Z,5.52
2022-10-13T11:24:54.424Z,4.91
2022-10-13T11:25:54.434Z,5.43
2022-10-13T11:26:54.436Z,5.56
2022-10-13T11:27:54.457Z,5.56
2022-10-13T11:28:54.526Z,5.56
2022-10-13T11:29:54.431Z,5.32
2022-10-13T11:30:54.428Z,5.51
2022-10-13T11:31:54.429Z,5.3
2022-10-13T11:32:54.539Z,5.59
2022-10-13T11:33:54.430Z,5.51
2022-10-13T11:34:54.428Z,5.45
2022-10-13T11:35:54.439Z,5.42
2022-10-13T11:36:54.434Z,5.42
2022-10-13T11:38:05.933Z,5.27
2022-10-13T11:38:54.433Z,5.25
2022-10-13T11:39:54.427Z,5.24
2022-10-13T11:40:54.430Z,5.19
2022-10-13T11:41:54.432Z,5.09
2022-10-13T11:42:58.318Z,5.01
2022-10-13T11:43:54.429Z,4.95
2022-10-13T11:44:54.433Z,5.09
2022-10-13T11:45:54.432Z,4.96
2022-10-13T11:46:54.436Z,4.69
2022-10-13T11:47:54.455Z,4.51
2022-10-13T11:48:54.430Z,4.59
2022-10-13T11:49:54.436Z,4.38
2022-10-13T11:50:54.430Z,4.48
2022-10-13T11:51:54.429Z,4.71
2022-10-13T11:52:54.445Z,4.69
2022-10-13T11:53:54.432Z,4.7
2022-10-13T11:54:54.429Z,4.75
2022-10-13T11:55:54.426Z,4.77
2022-10-13T11:56:54.422Z,4.84
2022-10-13T11:57:54.443Z,4.83
2022-10-13T11:58:54.429Z,4.94
2022-10-13T11:59:54.423Z,4.95
2022-10-13T12:00:54.429Z,4.72
2022-10-13T12:01:54.422Z,4.31
2022-10-13T12:02:54.539Z,3.68
2022-10-13T12:03:54.429Z,2.84
2022-10-13T12:04:54.428Z,3.04
2022-10-13T12:05:54.441Z,3.11
2022-10-13T12:06:54.426Z,2.89
2022-10-13T12:07:54.449Z,3.02
2022-10-13T12:08:54.432Z,4
2022-10-13T12:09:54.425Z,4.37
2022-10-13T12:10:54.433Z,4.91
2022-10-13T12:11:54.427Z,5.45
2022-10-13T12:12:54.439Z,3.7
2022-10-13T12:13:54.436Z,5.62
2022-10-13T12:14:54.434Z,5.97
2022-10-13T12:15:54.425Z,6.47
2022-10-13T12:17:54.463Z,6.65
2022-10-13T12:18:54.438Z,6.12
2022-10-13T12:19:54.435Z,6.07
2022-10-13T12:20:54.436Z,4.8
2022-10-13T12:21:54.435Z,4.35
2022-10-13T12:22:54.448Z,4.42
2022-10-13T12:23:54.428Z,3.8
2022-10-13T12:24:54.436Z,4.37
2022-10-13T12:25:54.435Z,5.04
2022-10-13T12:26:54.434Z,4.72
2022-10-13T12:27:54.446Z,4.72
2022-10-13T12:28:54.512Z,4.17
2022-10-13T12:29:54.427Z,4.41
2022-10-13T12:30:54.439Z,4.76
2022-10-13T12:31:54.438Z,5.27
2022-10-13T12:32:54.448Z,5.04
2022-10-13T12:33:54.432Z,4.62
2022-10-13T12:34:54.437Z,4.6
2022-10-13T12:35:54.434Z,4.66
2022-10-13T12:36:54.436Z,3.91
2022-10-13T12:37:54.452Z,3.39
2022-10-13T12:38:54.434Z,3.92
2022-10-13T12:39:54.427Z,3.56
2022-10-13T12:40:54.441Z,4.3
2022-10-13T12:41:54.432Z,3.37
2022-10-13T12:42:54.453Z,2.37
2022-10-13T12:43:54.431Z,2.16
2022-10-13T12:44:54.441Z,1.97
2022-10-13T12:45:54.433Z,1.96
2022-10-13T12:46:54.427Z,1.96
2022-10-13T12:47:54.447Z,2.01
2022-10-13T12:48:54.440Z,1.93
2022-10-13T12:49:54.434Z,1.9
2022-10-13T12:50:54.428Z,1.9
2022-10-13T12:51:54.431Z,1.98
2022-10-13T12:52:54.453Z,2.19
2022-10-13T12:53:54.429Z,2.29
2022-10-13T12:54:54.433Z,2.25
2022-10-13T12:55:54.436Z,2.28
2022-10-13T12:56:56.513Z,2.47
2022-10-13T12:57:54.449Z,2.47
2022-10-13T12:58:54.432Z,2.29
2022-10-13T12:59:54.432Z,2.25
2022-10-13T13:00:54.468Z,2.61
2022-10-13T13:01:54.449Z,5.09
2022-10-13T13:02:54.453Z,5.2
2022-10-13T13:03:54.426Z,3.98
2022-10-13T13:04:54.432Z,2.81
2022-10-13T13:05:58.492Z,2.67
2022-10-13T13:06:54.429Z,2.72
2022-10-13T13:07:54.438Z,2.65
2022-10-13T13:08:54.422Z,2.39
2022-10-13T13:09:54.510Z,2.36
2022-10-13T13:10:54.431Z,2.37
2022-10-13T13:11:54.422Z,2.17
2022-10-13T13:12:54.466Z,1.97
2022-10-13T13:13:54.431Z,1.94
2022-10-13T13:14:54.428Z,2.03
2022-10-13T13:15:54.485Z,2.1
2022-10-13T13:16:59.077Z,2.21
2022-10-13T13:17:58.942Z,2.05
2022-10-13T13:18:54.428Z,2.46
2022-10-13T13:19:54.427Z,3.01
2022-10-13T13:20:54.430Z,2.93
2022-10-13T13:21:54.435Z,2.38
2022-10-13T13:22:54.443Z,2.94
2022-10-13T13:23:54.425Z,3.71
2022-10-13T13:24:54.430Z,3.55
2022-10-13T13:25:54.538Z,2.75
2022-10-13T13:26:54.439Z,3.1
2022-10-13T13:27:54.449Z,3.1
2022-10-13T13:28:54.440Z,3.04
2022-10-13T13:29:54.432Z,2.74
2022-10-13T13:30:54.429Z,2.31
2022-10-13T13:31:54.429Z,2.34
2022-10-13T13:32:54.450Z,2.84
2022-10-13T13:33:54.451Z,3.71
2022-10-13T13:34:54.428Z,4.05
2022-10-13T13:35:54.436Z,4.06
2022-10-13T13:36:54.432Z,3.21
2022-10-13T13:37:54.455Z,3.72
2022-10-13T13:38:54.437Z,3.15
2022-10-13T13:39:54.434Z,3.39
2022-10-13T13:40:54.427Z,3.58
2022-10-13T13:41:54.442Z,3.06
2022-10-13T13:42:54.452Z,3.14
2022-10-13T13:43:54.439Z,3.14
2022-10-13T13:44:54.433Z,2.94
2022-10-13T13:45:54.435Z,2.77
2022-10-13T13:46:54.433Z,2.25
2022-10-13T13:47:59.620Z,2
2022-10-13T13:48:54.428Z,2
2022-10-13T13:49:54.431Z,1.9
2022-10-13T13:50:54.422Z,1.79
2022-10-13T13:51:54.426Z,2.13
2022-10-13T13:52:54.453Z,1.99
2022-10-13T13:53:54.433Z,1.7
2022-10-13T13:54:54.431Z,1.52
2022-10-13T13:55:54.431Z,1.39